createdAt,value
2023-01-31T00:00:35.168Z,62.31
2023-01-31T00:03:23.218Z,62.22
2023-01-31T00:05:51.186Z,61.72
2023-01-31T00:08:18.982Z,61.25
2023-01-31T00:10:46.738Z,61.11
2023-01-31T00:13:14.544Z,61.08
2023-01-31T00:15:42.332Z,61.04
2023-01-31T00:18:10.135Z,60.78
2023-01-31T00:20:38.619Z,60.42
2023-01-31T00:23:06.500Z,60.53
2023-01-31T00:25:34.818Z,60.57
2023-01-31T00:28:02.650Z,60.29
2023-01-31T00:30:30.419Z,60.28
2023-01-31T00:32:58.274Z,60.30
2023-01-31T00:35:26.099Z,60.15
2023-01-31T00:37:53.988Z,60.00
2023-01-31T00:40:21.913Z,60.02
2023-01-31T00:42:49.700Z,59.89
2023-01-31T00:45:17.819Z,60.06
2023-01-31T00:47:45.842Z,60.16
2023-01-31T00:50:15.403Z,59.74
2023-01-31T00:52:43.235Z,59.39
2023-01-31T00:55:11.619Z,58.72
2023-01-31T00:57:39.474Z,60.26
2023-01-31T01:00:07.938Z,62.98
2023-01-31T01:02:36.492Z,64.08
2023-01-31T01:05:05.617Z,63.71
2023-01-31T01:07:34.152Z,63.12
2023-01-31T01:10:02.292Z,62.37
2023-01-31T01:12:30.335Z,61.89
2023-01-31T01:14:58.125Z,61.85
2023-01-31T01:17:26.623Z,61.84
2023-01-31T01:19:54.723Z,61.27
2023-01-31T01:22:22.653Z,61.19
2023-01-31T01:24:50.534Z,61.15
2023-01-31T01:27:18.352Z,61.06
2023-01-31T01:29:46.183Z,61.06
2023-01-31T01:32:14.076Z,61.01
2023-01-31T01:34:41.882Z,60.87
2023-01-31T01:37:12.108Z,60.84
2023-01-31T01:39:40.034Z,60.99
2023-01-31T01:42:17.546Z,60.99
2023-01-31T01:44:45.315Z,61.10
2023-01-31T01:47:35.357Z,61.04
2023-01-31T01:50:44.248Z,61.06
2023-01-31T01:53:16.404Z,61.07
2023-01-31T01:55:50.414Z,61.11
2023-01-31T01:58:27.786Z,60.98
2023-01-31T02:00:56.653Z,61.26
2023-01-31T02:03:26.137Z,61.35
2023-01-31T02:06:01.938Z,61.08
2023-01-31T02:08:33.607Z,61.06
2023-01-31T02:11:11.632Z,60.91
2023-01-31T02:13:41.667Z,60.81
2023-01-31T02:16:15.980Z,60.80
2023-01-31T02:18:46.608Z,60.68
2023-01-31T02:21:33.608Z,60.68
2023-01-31T02:28:24.628Z,60.59
2023-01-31T02:31:15.648Z,60.45
2023-01-31T02:34:07.892Z,59.90
2023-01-31T02:37:10.676Z,59.86
2023-01-31T02:39:54.703Z,59.97
2023-01-31T02:42:42.808Z,60.02
2023-01-31T02:45:31.816Z,60.22
2023-01-31T02:48:15.607Z,60.00
2023-01-31T02:51:17.613Z,60.20
2023-01-31T02:54:06.048Z,60.11
2023-01-31T02:56:39.717Z,59.88
2023-01-31T02:59:27.729Z,59.62
2023-01-31T03:02:01.623Z,59.98
2023-01-31T03:04:36.949Z,60.16
2023-01-31T03:07:27.730Z,59.42
2023-01-31T03:10:44.710Z,58.99
2023-01-31T03:13:36.697Z,59.92
2023-01-31T03:16:50.195Z,63.28
2023-01-31T03:19:26.738Z,63.66
2023-01-31T03:22:07.741Z,63.14
2023-01-31T03:24:42.749Z,62.57
2023-01-31T03:27:15.756Z,61.76
2023-01-31T03:29:47.741Z,61.53
2023-01-31T03:32:27.111Z,61.18
2023-01-31T03:34:58.753Z,60.77
2023-01-31T03:37:49.776Z,59.84
2023-01-31T03:40:39.758Z,59.03
2023-01-31T03:43:29.112Z,59.78
2023-01-31T03:46:34.806Z,60.48
2023-01-31T03:49:09.771Z,62.44
2023-01-31T03:51:48.797Z,65.11
2023-01-31T03:54:28.767Z,64.33
2023-01-31T04:04:33.937Z,60.96
2023-01-31T04:07:03.057Z,60.37
2023-01-31T04:09:32.434Z,61.45
2023-01-31T04:12:02.507Z,62.53
2023-01-31T04:14:30.836Z,64.09
2023-01-31T04:16:59.005Z,63.23
2023-01-31T04:19:27.004Z,62.23
2023-01-31T04:21:55.046Z,61.52
2023-01-31T04:24:24.366Z,61.51
2023-01-31T04:26:52.393Z,60.76
2023-01-31T04:29:20.485Z,60.26
2023-01-31T04:31:48.527Z,60.43
2023-01-31T04:34:16.836Z,60.02
2023-01-31T04:36:45.004Z,59.68
2023-01-31T04:39:13.925Z,59.24
2023-01-31T04:41:41.963Z,59.21
2023-01-31T04:44:10.559Z,59.65
2023-01-31T04:46:38.796Z,60.60
2023-01-31T04:49:07.644Z,62.22
2023-01-31T04:51:35.733Z,64.03
2023-01-31T04:54:03.973Z,64.65
2023-01-31T04:56:32.721Z,63.90
2023-01-31T04:59:01.162Z,63.09
2023-01-31T05:01:29.615Z,62.29
2023-01-31T05:03:57.779Z,61.67
2023-01-31T05:06:25.779Z,61.03
2023-01-31T05:08:54.743Z,60.51
2023-01-31T05:11:22.811Z,59.48
2023-01-31T05:13:50.905Z,59.09
2023-01-31T05:16:18.986Z,59.40
2023-01-31T05:18:47.228Z,61.61
2023-01-31T05:21:15.209Z,63.25
2023-01-31T05:23:43.121Z,64.19
2023-01-31T05:26:12.073Z,63.56
2023-01-31T05:28:40.238Z,62.25
2023-01-31T05:31:09.185Z,61.29
2023-01-31T05:33:37.448Z,60.90
2023-01-31T05:36:06.113Z,60.48
2023-01-31T05:38:34.159Z,60.40
2023-01-31T05:41:02.276Z,59.62
2023-01-31T05:43:30.301Z,58.54
2023-01-31T05:45:58.311Z,58.59
2023-01-31T05:48:26.437Z,60.60
2023-01-31T05:50:54.508Z,61.47
2023-01-31T05:53:23.093Z,63.20
2023-01-31T05:55:51.262Z,64.25
2023-01-31T05:58:19.333Z,63.68
2023-01-31T06:00:47.460Z,62.64
2023-01-31T06:03:15.763Z,61.79
2023-01-31T06:05:43.959Z,61.75
2023-01-31T06:08:11.929Z,60.88
2023-01-31T06:10:39.995Z,60.35
2023-01-31T06:13:07.966Z,59.58
2023-01-31T06:15:37.985Z,58.78
2023-01-31T06:18:05.963Z,59.40
2023-01-31T06:20:33.917Z,60.17
2023-01-31T06:23:01.863Z,61.51
2023-01-31T06:25:29.806Z,62.93
2023-01-31T06:27:58.039Z,64.25
2023-01-31T06:30:26.355Z,63.80
2023-01-31T06:32:54.412Z,62.84
2023-01-31T06:35:22.659Z,61.62
2023-01-31T06:37:50.927Z,60.55
2023-01-31T06:40:18.999Z,60.52
2023-01-31T06:42:47.069Z,59.98
2023-01-31T06:45:15.144Z,59.06
2023-01-31T06:47:45.688Z,58.52
2023-01-31T06:50:13.763Z,59.09
2023-01-31T06:52:42.016Z,61.36
2023-01-31T06:55:11.654Z,61.82
2023-01-31T06:57:47.609Z,63.59
2023-01-31T07:00:16.780Z,64.31
2023-01-31T07:02:46.273Z,63.33
2023-01-31T07:05:15.511Z,62.14
2023-01-31T07:07:43.454Z,61.19
2023-01-31T07:10:12.390Z,60.47
2023-01-31T07:12:41.337Z,59.65
2023-01-31T07:15:11.286Z,58.85
2023-01-31T07:17:39.553Z,60.00
2023-01-31T07:20:08.749Z,60.93
2023-01-31T07:22:36.893Z,61.59
2023-01-31T07:25:05.807Z,63.63
2023-01-31T07:27:33.868Z,64.68
2023-01-31T07:30:02.070Z,63.08
2023-01-31T07:32:31.323Z,62.32
2023-01-31T07:34:59.415Z,61.29
2023-01-31T07:37:27.582Z,60.09
2023-01-31T07:39:55.776Z,60.08
2023-01-31T07:42:23.764Z,59.69
2023-01-31T07:44:51.823Z,58.48
2023-01-31T07:47:19.854Z,57.76
2023-01-31T07:49:50.712Z,58.49
2023-01-31T07:52:18.762Z,59.82
2023-01-31T07:54:47.243Z,60.41
2023-01-31T07:57:17.901Z,62.72
2023-01-31T07:59:46.055Z,62.83
2023-01-31T08:02:35.315Z,62.60
2023-01-31T08:05:04.416Z,61.10
2023-01-31T08:07:32.986Z,60.77
2023-01-31T08:10:10.512Z,59.19
2023-01-31T08:12:38.555Z,56.63
2023-01-31T08:15:07.366Z,57.76
2023-01-31T08:17:35.326Z,58.52
2023-01-31T08:20:03.894Z,60.80
2023-01-31T08:22:31.963Z,60.89
2023-01-31T08:25:00.251Z,62.69
2023-01-31T08:27:28.416Z,62.55
2023-01-31T08:29:56.422Z,60.96
2023-01-31T08:32:24.404Z,58.70
2023-01-31T08:34:52.463Z,58.06
2023-01-31T08:37:20.401Z,58.45
2023-01-31T08:39:48.905Z,59.36
2023-01-31T08:42:16.835Z,60.55
2023-01-31T08:44:44.775Z,60.65
2023-01-31T08:47:12.846Z,62.31
2023-01-31T08:49:40.865Z,62.50
2023-01-31T08:52:08.690Z,61.64
2023-01-31T08:54:36.610Z,60.57
2023-01-31T08:57:04.549Z,57.91
2023-01-31T08:59:32.787Z,56.41
2023-01-31T09:02:00.795Z,58.00
2023-01-31T09:04:29.003Z,58.57
2023-01-31T09:06:57.001Z,60.57
2023-01-31T09:09:26.525Z,61.00
2023-01-31T09:11:54.750Z,61.68
2023-01-31T09:14:22.679Z,60.81
2023-01-31T09:16:50.596Z,58.62
2023-01-31T09:19:18.664Z,57.65
2023-01-31T09:21:46.547Z,59.59
2023-01-31T09:24:14.480Z,59.40
2023-01-31T09:26:42.376Z,60.26
2023-01-31T09:29:10.317Z,61.14
2023-01-31T09:31:38.657Z,59.74
2023-01-31T09:34:06.636Z,60.12
2023-01-31T09:36:34.533Z,62.39
2023-01-31T09:39:02.435Z,61.56
2023-01-31T09:41:37.663Z,59.20
2023-01-31T09:44:12.952Z,58.24
2023-01-31T09:46:45.229Z,60.17
2023-01-31T09:49:26.269Z,60.95
2023-01-31T09:52:00.979Z,59.80
2023-01-31T09:54:35.146Z,60.23
2023-01-31T09:57:12.008Z,61.22
2023-01-31T09:59:45.893Z,61.03
2023-01-31T10:02:38.466Z,61.16
2023-01-31T10:05:29.362Z,62.36
2023-01-31T10:08:15.441Z,60.27
2023-01-31T10:10:52.823Z,59.26
2023-01-31T10:13:30.246Z,58.51
2023-01-31T10:16:24.436Z,59.13
2023-01-31T10:19:01.942Z,59.40
2023-01-31T10:21:36.158Z,60.72
2023-01-31T10:24:11.782Z,60.30
2023-01-31T10:26:45.378Z,59.00
2023-01-31T10:29:21.892Z,60.20
2023-01-31T10:31:59.006Z,59.75
2023-01-31T10:34:48.814Z,59.82
2023-01-31T10:37:27.703Z,60.08
2023-01-31T10:40:06.401Z,60.91
2023-01-31T10:42:38.291Z,61.61
2023-01-31T10:45:13.581Z,61.48
2023-01-31T10:47:56.794Z,61.55
2023-01-31T10:50:33.709Z,60.11
2023-01-31T10:53:15.434Z,59.72
2023-01-31T10:56:13.526Z,57.24
2023-01-31T10:58:41.632Z,56.60
2023-01-31T11:01:12.359Z,56.77
2023-01-31T11:03:46.063Z,58.73
2023-01-31T11:06:14.397Z,58.78
2023-01-31T11:08:50.546Z,58.50
2023-01-31T11:11:21.988Z,59.52
2023-01-31T11:14:07.521Z,60.06
2023-01-31T11:16:39.775Z,59.67
2023-01-31T11:19:23.402Z,59.58
2023-01-31T11:21:53.524Z,59.10
2023-01-31T11:24:24.155Z,59.58
2023-01-31T11:26:55.741Z,58.50
2023-01-31T11:29:49.211Z,58.89
2023-01-31T11:32:23.738Z,59.01
2023-01-31T11:34:58.159Z,58.54
2023-01-31T11:37:27.721Z,58.67
2023-01-31T11:40:22.376Z,59.57
2023-01-31T11:43:22.788Z,59.94
2023-01-31T11:45:59.272Z,58.84
2023-01-31T11:48:39.739Z,58.57
2023-01-31T11:51:08.567Z,59.40
2023-01-31T11:53:49.709Z,58.64
2023-01-31T11:56:19.917Z,58.46
2023-01-31T11:58:53.167Z,58.91
2023-01-31T12:01:24.343Z,59.14
2023-01-31T12:04:03.231Z,58.81
2023-01-31T12:06:33.625Z,59.87
2023-01-31T12:09:19.299Z,59.82
2023-01-31T12:11:52.214Z,59.65
2023-01-31T12:14:20.163Z,59.94
2023-01-31T12:16:50.261Z,59.96
2023-01-31T12:19:22.590Z,59.69
2023-01-31T12:22:03.969Z,59.85
2023-01-31T12:24:56.676Z,58.47
2023-01-31T12:28:01.486Z,59.41
2023-01-31T12:30:52.363Z,59.88
2023-01-31T12:33:44.748Z,58.52
2023-01-31T12:36:22.965Z,58.43
2023-01-31T12:39:02.849Z,58.43
2023-01-31T12:41:41.440Z,58.96
2023-01-31T12:44:31.030Z,59.04
2023-01-31T12:47:11.433Z,58.65
2023-01-31T12:50:17.894Z,57.94
2023-01-31T12:53:30.189Z,58.76
2023-01-31T12:56:24.602Z,58.77
2023-01-31T12:59:15.045Z,58.83
2023-01-31T13:02:10.501Z,58.09
2023-01-31T13:04:44.442Z,56.87
2023-01-31T13:07:23.278Z,57.26
2023-01-31T13:09:54.272Z,57.28
2023-01-31T13:12:27.613Z,57.90
2023-01-31T13:15:41.067Z,57.52
2023-01-31T13:18:24.497Z,56.66
2023-01-31T13:21:15.239Z,56.76
2023-01-31T13:24:05.508Z,55.87
2023-01-31T13:26:38.227Z,56.22
2023-01-31T13:29:37.401Z,56.53
2023-01-31T13:32:13.650Z,55.64
2023-01-31T13:34:51.908Z,55.40
2023-01-31T13:37:24.133Z,54.85
2023-01-31T13:40:07.660Z,56.13
2023-01-31T13:42:35.869Z,55.99
2023-01-31T13:45:07.913Z,56.58
2023-01-31T13:47:48.057Z,56.17
2023-01-31T13:50:48.996Z,56.82
2023-01-31T13:53:23.296Z,56.88
2023-01-31T13:55:52.766Z,56.55
2023-01-31T13:58:34.422Z,56.89
2023-01-31T14:01:17.960Z,56.82
2023-01-31T14:04:11.166Z,56.78
2023-01-31T14:07:07.741Z,57.13
2023-01-31T14:09:41.705Z,56.72
2023-01-31T14:12:09.728Z,56.12
2023-01-31T14:14:45.246Z,56.47
2023-01-31T14:17:22.451Z,56.30
2023-01-31T14:19:50.511Z,57.06
2023-01-31T14:22:41.531Z,57.44
2023-01-31T14:32:58.288Z,58.06
2023-01-31T14:35:48.379Z,58.07
2023-01-31T14:38:22.620Z,57.98
2023-01-31T14:41:09.091Z,58.07
2023-01-31T14:43:52.214Z,58.35
2023-01-31T14:46:38.214Z,58.07
2023-01-31T14:49:23.893Z,58.12
2023-01-31T14:52:15.725Z,58.44
2023-01-31T14:54:59.083Z,58.45
2023-01-31T14:57:41.079Z,58.52
2023-01-31T15:00:15.276Z,58.92
2023-01-31T15:03:17.906Z,58.69
2023-01-31T15:05:53.172Z,58.84
2023-01-31T15:08:21.149Z,59.04
2023-01-31T15:11:35.358Z,59.08
2023-01-31T15:14:36.528Z,59.37
2023-01-31T15:17:31.642Z,59.43
2023-01-31T15:20:15.317Z,59.44
2023-01-31T15:22:45.529Z,59.59
2023-01-31T15:25:40.201Z,59.66
2023-01-31T15:28:16.013Z,59.55
2023-01-31T15:30:44.999Z,59.67
2023-01-31T15:33:33.033Z,59.87
2023-01-31T15:36:13.499Z,59.98
2023-01-31T15:38:53.922Z,60.29
2023-01-31T15:41:47.893Z,60.30
2023-01-31T15:44:27.799Z,60.34
2023-01-31T15:46:58.268Z,60.39
2023-01-31T15:49:41.711Z,60.69
2023-01-31T15:52:09.596Z,60.78
2023-01-31T15:54:38.491Z,60.84
2023-01-31T15:57:15.998Z,61.16
2023-01-31T15:59:50.507Z,61.24
2023-01-31T16:02:39.512Z,61.62
2023-01-31T16:05:08.421Z,61.50
2023-01-31T16:07:36.507Z,61.65
2023-01-31T16:10:05.078Z,61.73
2023-01-31T16:12:36.629Z,61.85
2023-01-31T16:15:07.977Z,61.89
2023-01-31T16:17:36.063Z,62.09
2023-01-31T16:20:05.683Z,62.27
2023-01-31T16:22:33.712Z,63.20
2023-01-31T16:25:03.961Z,64.54
2023-01-31T16:27:37.393Z,64.64
2023-01-31T16:30:06.495Z,63.96
2023-01-31T16:32:40.313Z,62.19
2023-01-31T16:35:21.409Z,60.01
2023-01-31T16:38:04.365Z,57.99
2023-01-31T16:40:37.433Z,57.88
2023-01-31T16:43:19.335Z,58.25
2023-01-31T16:45:53.754Z,58.60
2023-01-31T16:48:36.697Z,59.26
2023-01-31T16:51:28.603Z,59.75
2023-01-31T16:54:18.279Z,59.97
2023-01-31T16:56:48.392Z,60.42
2023-01-31T16:59:35.013Z,61.10
2023-01-31T17:02:18.489Z,61.31
2023-01-31T17:04:48.884Z,61.61
2023-01-31T17:07:36.999Z,62.09
2023-01-31T17:10:08.242Z,62.86
2023-01-31T17:12:40.464Z,64.72
2023-01-31T17:15:16.456Z,63.54
2023-01-31T17:17:44.752Z,63.82
2023-01-31T17:20:18.343Z,62.85
2023-01-31T17:22:56.886Z,61.75
2023-01-31T17:25:36.544Z,60.70
2023-01-31T17:28:05.916Z,58.94
2023-01-31T17:30:34.949Z,57.31
2023-01-31T17:33:02.965Z,57.33
2023-01-31T17:35:37.999Z,58.06
2023-01-31T17:38:06.479Z,58.46
2023-01-31T17:40:35.409Z,59.08
2023-01-31T17:43:05.096Z,60.20
2023-01-31T17:45:33.361Z,60.35
2023-01-31T17:48:01.552Z,60.76
2023-01-31T17:50:29.707Z,61.23
2023-01-31T17:52:57.792Z,61.96
2023-01-31T17:55:26.159Z,61.99
2023-01-31T17:57:54.226Z,62.90
2023-01-31T18:00:22.395Z,64.84
2023-01-31T18:02:52.528Z,64.01
2023-01-31T18:05:30.199Z,62.68
2023-01-31T18:08:06.389Z,62.47
2023-01-31T18:10:34.453Z,61.25
2023-01-31T18:13:02.521Z,60.82
2023-01-31T18:15:31.098Z,59.01
2023-01-31T18:17:59.220Z,57.97
2023-01-31T18:20:27.265Z,58.21
2023-01-31T18:22:55.312Z,58.62
2023-01-31T18:25:23.800Z,59.63
2023-01-31T18:27:52.094Z,60.40
2023-01-31T18:30:20.142Z,60.86
2023-01-31T18:32:48.219Z,61.93
2023-01-31T18:35:16.292Z,62.89
2023-01-31T18:37:44.350Z,64.65
2023-01-31T18:40:13.036Z,63.99
2023-01-31T18:42:41.024Z,63.64
2023-01-31T18:45:10.775Z,63.32
2023-01-31T18:47:38.994Z,62.71
2023-01-31T18:50:12.412Z,62.35
2023-01-31T18:52:43.980Z,62.13
2023-01-31T18:55:12.219Z,61.69
2023-01-31T18:57:40.475Z,61.22
2023-01-31T19:00:09.307Z,59.60
2023-01-31T19:02:37.397Z,58.57
2023-01-31T19:05:06.163Z,58.54
2023-01-31T19:07:34.781Z,59.42
2023-01-31T19:10:03.264Z,61.07
2023-01-31T19:12:32.751Z,61.61
2023-01-31T19:15:00.777Z,62.99
2023-01-31T19:17:28.853Z,64.34
2023-01-31T19:19:56.808Z,64.38
2023-01-31T19:22:28.527Z,63.34
2023-01-31T19:24:56.994Z,63.67
2023-01-31T19:27:25.653Z,62.86
2023-01-31T19:29:53.558Z,62.01
2023-01-31T19:32:22.580Z,61.69
2023-01-31T19:34:52.481Z,62.12
2023-01-31T19:37:21.715Z,62.01
2023-01-31T19:39:49.788Z,61.47
2023-01-31T19:42:17.862Z,60.95
2023-01-31T19:44:46.552Z,60.89
2023-01-31T19:47:14.533Z,59.92
2023-01-31T19:49:42.477Z,58.99
2023-01-31T19:52:10.477Z,59.03
2023-01-31T19:54:41.589Z,59.77
2023-01-31T19:57:09.561Z,60.96
2023-01-31T19:59:37.600Z,62.66
2023-01-31T20:02:05.642Z,64.04
2023-01-31T20:04:33.701Z,63.60
2023-01-31T20:07:01.760Z,63.83
2023-01-31T20:09:29.808Z,63.42
2023-01-31T20:11:57.885Z,62.04
2023-01-31T20:14:25.970Z,61.95
2023-01-31T20:16:54.171Z,61.63
2023-01-31T20:19:23.145Z,61.25
2023-01-31T20:21:51.201Z,60.82
2023-01-31T20:24:19.568Z,61.20
2023-01-31T20:26:47.673Z,61.25
2023-01-31T20:29:15.715Z,61.30
2023-01-31T20:31:43.873Z,61.00
2023-01-31T20:34:12.053Z,59.96
2023-01-31T20:36:40.024Z,59.34
2023-01-31T20:39:08.301Z,59.08
2023-01-31T20:41:38.320Z,59.70
2023-01-31T20:44:06.594Z,61.16
2023-01-31T20:46:34.765Z,63.34
2023-01-31T20:49:03.045Z,64.54
2023-01-31T20:51:37.352Z,64.85
2023-01-31T20:54:06.255Z,63.80
2023-01-31T20:56:34.422Z,63.66
2023-01-31T20:59:02.493Z,62.30
2023-01-31T21:01:30.631Z,62.49
2023-01-31T21:03:58.741Z,61.86
2023-01-31T21:06:26.739Z,61.30
2023-01-31T21:08:56.759Z,61.73
2023-01-31T21:11:25.100Z,62.50
2023-01-31T21:13:53.171Z,61.69
2023-01-31T21:16:21.785Z,62.11
2023-01-31T21:18:50.042Z,62.42
2023-01-31T21:21:23.582Z,61.27
2023-01-31T21:23:59.727Z,61.86
2023-01-31T21:26:27.902Z,61.87
2023-01-31T21:28:56.152Z,61.62
2023-01-31T21:31:24.578Z,61.15
2023-01-31T21:33:53.067Z,60.70
2023-01-31T21:36:25.781Z,60.82
2023-01-31T21:38:54.772Z,60.49
2023-01-31T21:41:41.493Z,60.39
2023-01-31T21:44:09.650Z,60.92
2023-01-31T21:46:38.136Z,61.12
2023-01-31T21:49:06.332Z,61.06
2023-01-31T21:51:34.586Z,61.22
2023-01-31T21:54:02.927Z,60.55
2023-01-31T21:56:31.003Z,60.42
2023-01-31T21:58:59.428Z,60.34
2023-01-31T22:01:30.094Z,60.58
2023-01-31T22:03:59.444Z,60.38
2023-01-31T22:06:31.684Z,60.56
2023-01-31T22:09:01.499Z,60.42
2023-01-31T22:11:35.400Z,60.09
2023-01-31T22:14:09.137Z,59.93
2023-01-31T22:16:37.332Z,60.24
2023-01-31T22:19:05.491Z,60.57
2023-01-31T22:21:36.239Z,60.58
2023-01-31T22:24:06.791Z,60.82
2023-01-31T22:26:40.942Z,60.84
2023-01-31T22:29:12.148Z,60.53
2023-01-31T22:31:40.649Z,60.40
2023-01-31T22:34:13.038Z,60.27
2023-01-31T22:36:41.488Z,60.76
2023-01-31T22:39:13.309Z,61.05
2023-01-31T22:41:42.402Z,60.56
2023-01-31T22:44:10.944Z,60.97
2023-01-31T22:46:38.927Z,60.81
2023-01-31T22:49:07.126Z,60.68
2023-01-31T22:51:35.212Z,61.00
2023-01-31T22:54:03.465Z,60.91
2023-01-31T22:56:32.865Z,61.30
2023-01-31T22:59:03.602Z,60.95
2023-01-31T23:01:35.145Z,61.12
2023-01-31T23:04:07.272Z,61.23
2023-01-31T23:06:35.897Z,61.48
2023-01-31T23:09:04.345Z,61.78
2023-01-31T23:11:32.555Z,61.37
2023-01-31T23:14:00.711Z,62.03
2023-01-31T23:16:47.260Z,62.04
2023-01-31T23:19:16.498Z,61.90
2023-01-31T23:21:44.835Z,61.95
2023-01-31T23:24:14.974Z,62.08
2023-01-31T23:26:43.633Z,62.58
2023-01-31T23:29:12.112Z,62.24
2023-01-31T23:31:40.334Z,62.15
2023-01-31T23:34:08.505Z,62.28
2023-01-31T23:36:37.552Z,62.29
2023-01-31T23:39:05.940Z,62.83
2023-01-31T23:41:34.017Z,62.32
2023-01-31T23:44:01.964Z,62.54
2023-01-31T23:46:29.843Z,62.37
2023-01-31T23:48:57.824Z,62.34
2023-01-31T23:51:28.591Z,62.36
2023-01-31T23:53:57.177Z,62.88
2023-01-31T23:56:26.650Z,63.15
2023-01-31T23:58:54.577Z,62.63
